Aérodrome :
LOGIN :

S'inscrire | Disclaimer

   EN    FR    IT 

 










Légende :    VFR   VFR Marginal   IFR   IFR Intensif   IFR Très Intensif
Visi : 
Plafond : 
>= 8 km
>= 3000ft
5 à 8 km
1000 à 3000 ft
1500m à 5 km
500 à 1000 ft
800 à 1500m
200 à 500 ft
< 800m
< 200 ft
Symboles :   Orages  Brouillard  Fortes neiges  Fortes précipitations  Vent > 20 kt
SIGMETs :   Divers  Orages  Givrage  Turbulence  Onde Orograph.  Cendres Volcan.







- Altitude de l'aérodrome : 348 ft
- Code IATA : LDV
- Voir les cartes d'approche


LFRJ - Landivisiau

DERNIER METAR :
  • 171430Z AUTO 29010KT 270V340 9999 SCT028 BKN035 BKN046 18/11 Q1024

METARs EXPIRÉS :
  • 171400Z AUTO 32009KT 280V350 9999 BKN034 BKN040 OVC049 18/10 Q1024
  • 171330Z AUTO 32009KT 9999 BKN034 OVC047 18/10 Q1025
  • 171300Z AUTO 33010KT 9999 FEW035 OVC050 19/10 Q1024
  • 171230Z AUTO 32009KT 300V360 9999 SCT034 BKN042 BKN052 19/11 Q1024
  • 171200Z AUTO 30009KT 260V340 9999 SCT034 SCT043 BKN050 19/09 Q1024

Prévision TAF périmée.
Pas de NOTAMs connus pour ce terrain.



MET'MAP, la Météo Aéronautique d'un coup d'oeil ! - Copyright ORBIFLY Décembre 2007 - Disclaimer

ORBIFLY MET'MAP TEAM :

Programmation & Développement : Alexandra Zaïnal
Conception & Développement : Baudouin d'Aumeries
Co-Programmation & Développement : Marc-Olivier Méhu
Soutien technique & logistique : Manuel Goepfert

Contact : metmap@orbifly.com




SOURCES & CREDITS :

   NOAA